createdAt,value
2019-01-29T00:01:28.971Z,78.85
2019-01-29T00:04:33.709Z,78.21
2019-01-29T00:07:38.139Z,78.62
2019-01-29T00:10:42.851Z,78.44
2019-01-29T00:13:47.282Z,78.99
2019-01-29T00:16:52.008Z,78.70
2019-01-29T00:19:56.435Z,78.28
2019-01-29T00:23:00.866Z,77.98
2019-01-29T00:26:05.311Z,78.61
2019-01-29T00:29:09.722Z,78.75
2019-01-29T00:32:14.154Z,78.18
2019-01-29T00:35:18.584Z,78.17
2019-01-29T00:38:23.278Z,78.71
2019-01-29T00:41:27.715Z,77.94
2019-01-29T00:44:32.139Z,77.78
2019-01-29T00:47:36.568Z,77.70
2019-01-29T00:50:41.277Z,76.72
2019-01-29T00:53:45.709Z,77.50
2019-01-29T00:56:50.436Z,77.19
2019-01-29T00:59:54.870Z,77.35
2019-01-29T01:02:59.588Z,77.36
2019-01-29T01:06:04.090Z,77.42
2019-01-29T01:09:09.397Z,77.54
2019-01-29T01:12:13.831Z,78.24
2019-01-29T01:15:19.130Z,78.37
2019-01-29T01:18:23.575Z,78.10
2019-01-29T01:21:28.279Z,77.43
2019-01-29T01:24:32.717Z,78.16
2019-01-29T01:27:37.435Z,77.75
2019-01-29T01:30:42.162Z,77.89
2019-01-29T01:33:46.663Z,77.69
2019-01-29T01:36:51.088Z,77.19
2019-01-29T01:39:55.524Z,77.24
2019-01-29T01:43:00.375Z,77.30
2019-01-29T01:46:04.869Z,77.43
2019-01-29T01:49:09.305Z,76.94
2019-01-29T01:52:13.741Z,77.10
2019-01-29T01:55:19.188Z,76.71
2019-01-29T01:58:23.623Z,75.79
2019-01-29T02:01:28.365Z,76.35
2019-01-29T02:04:32.784Z,76.63
2019-01-29T02:07:37.220Z,76.94
2019-01-29T02:10:41.649Z,76.91
2019-01-29T02:13:46.349Z,77.72
2019-01-29T02:16:50.842Z,76.82
2019-01-29T02:19:55.286Z,76.42
2019-01-29T02:23:07.529Z,75.99
2019-01-29T02:26:05.954Z,76.17
2019-01-29T02:29:10.716Z,76.10
2019-01-29T02:32:15.154Z,77.03
2019-01-29T02:35:19.692Z,76.77
2019-01-29T02:38:24.399Z,76.58
2019-01-29T02:41:28.830Z,76.53
2019-01-29T02:44:33.268Z,76.48
2019-01-29T02:47:37.976Z,76.14
2019-01-29T02:50:42.705Z,76.06
2019-01-29T02:53:47.437Z,75.53
2019-01-29T02:56:52.171Z,76.00
2019-01-29T02:59:56.602Z,75.49
2019-01-29T03:03:01.034Z,75.75
2019-01-29T03:06:06.295Z,76.61
2019-01-29T03:09:10.734Z,76.45
2019-01-29T03:12:15.160Z,76.14
2019-01-29T03:15:26.867Z,76.35
2019-01-29T03:18:31.642Z,75.41
2019-01-29T03:21:36.374Z,75.81
2019-01-29T03:24:40.809Z,75.89
2019-01-29T03:27:45.518Z,76.28
2019-01-29T03:30:50.258Z,75.79
2019-01-29T03:33:54.691Z,76.01
2019-01-29T03:36:59.112Z,76.10
2019-01-29T03:40:05.571Z,76.60
2019-01-29T03:43:10.294Z,76.54
2019-01-29T03:46:14.722Z,77.12
2019-01-29T03:49:19.161Z,77.99
2019-01-29T03:52:23.878Z,78.02
2019-01-29T03:55:28.339Z,78.10
2019-01-29T03:58:32.768Z,76.75
2019-01-29T04:01:37.453Z,77.20
2019-01-29T04:04:41.891Z,77.31
2019-01-29T04:07:46.823Z,77.91
2019-01-29T04:10:51.543Z,78.47
2019-01-29T04:13:56.294Z,78.29
2019-01-29T04:17:00.704Z,78.43
2019-01-29T04:20:09.580Z,77.79
2019-01-29T04:23:14.359Z,78.06
2019-01-29T04:26:18.788Z,78.31
2019-01-29T04:29:23.230Z,78.73
2019-01-29T04:32:27.659Z,79.33
2019-01-29T04:35:32.090Z,79.50
2019-01-29T04:38:36.528Z,79.65
2019-01-29T04:41:40.957Z,79.29
2019-01-29T04:44:45.389Z,79.73
2019-01-29T04:47:50.161Z,79.22
2019-01-29T04:50:54.597Z,79.16
2019-01-29T04:53:59.037Z,79.29
2019-01-29T04:57:03.460Z,79.16
2019-01-29T05:00:12.341Z,79.38
2019-01-29T05:03:16.842Z,79.60
2019-01-29T05:06:21.279Z,79.20
2019-01-29T05:09:25.716Z,78.75
2019-01-29T05:12:30.480Z,78.58
2019-01-29T05:15:35.190Z,78.83
2019-01-29T05:18:39.619Z,78.93
2019-01-29T05:21:44.059Z,79.33
2019-01-29T05:24:48.497Z,78.76
2019-01-29T05:27:53.193Z,78.46
2019-01-29T05:30:57.928Z,79.39
2019-01-29T05:34:02.359Z,79.37
2019-01-29T05:37:07.072Z,79.71
2019-01-29T05:40:15.651Z,79.85
2019-01-29T05:43:20.143Z,80.08
2019-01-29T05:46:25.288Z,79.53
2019-01-29T05:49:29.998Z,79.79
2019-01-29T05:52:34.422Z,79.66
2019-01-29T05:55:40.868Z,79.71
2019-01-29T05:58:45.024Z,79.63
2019-01-29T06:01:49.467Z,79.62
2019-01-29T06:04:53.898Z,78.79
2019-01-29T06:07:58.585Z,78.11
2019-01-29T06:11:03.310Z,78.45
2019-01-29T06:14:08.148Z,78.01
2019-01-29T06:17:12.585Z,77.68
2019-01-29T06:20:20.888Z,77.68
2019-01-29T06:23:25.619Z,78.11
2019-01-29T06:26:30.343Z,78.17
2019-01-29T06:29:34.772Z,78.22
2019-01-29T06:32:39.505Z,77.76
2019-01-29T06:35:44.228Z,77.68
2019-01-29T06:38:48.658Z,77.70
2019-01-29T06:41:53.094Z,77.79
2019-01-29T06:44:57.530Z,77.59
2019-01-29T06:48:02.235Z,77.59
2019-01-29T06:51:06.960Z,77.44
2019-01-29T06:54:11.406Z,76.98
2019-01-29T06:57:16.216Z,76.82
2019-01-29T07:00:27.572Z,76.83
2019-01-29T07:03:32.355Z,78.45
2019-01-29T07:06:36.798Z,77.05
2019-01-29T07:09:41.226Z,77.18
2019-01-29T07:12:45.912Z,76.93
2019-01-29T07:16:00.589Z,77.13
2019-01-29T07:19:06.733Z,76.70
2019-01-29T07:22:11.479Z,76.26
2019-01-29T07:25:15.895Z,76.18
2019-01-29T07:28:20.625Z,76.04
2019-01-29T07:31:25.352Z,76.40
2019-01-29T07:34:30.085Z,76.24
2019-01-29T07:37:34.817Z,76.80
2019-01-29T07:40:39.246Z,76.69
2019-01-29T07:43:43.683Z,76.69
2019-01-29T07:46:48.121Z,76.63
2019-01-29T07:49:52.552Z,75.67
2019-01-29T07:52:57.244Z,75.30
2019-01-29T07:56:01.992Z,74.62
2019-01-29T07:59:06.430Z,73.88
2019-01-29T08:02:11.137Z,74.37
2019-01-29T08:05:15.965Z,73.68
2019-01-29T08:08:20.397Z,72.77
2019-01-29T08:11:24.821Z,72.99
2019-01-29T08:14:29.264Z,72.94
2019-01-29T08:17:33.962Z,73.04
2019-01-29T08:20:39.346Z,72.82
2019-01-29T08:23:43.782Z,72.50
2019-01-29T08:26:48.565Z,73.09
2019-01-29T08:29:52.988Z,73.44
2019-01-29T08:32:57.417Z,72.90
2019-01-29T08:36:02.145Z,72.96
2019-01-29T08:39:08.586Z,72.69
2019-01-29T08:42:13.016Z,72.56
2019-01-29T08:45:19.490Z,73.33
2019-01-29T08:48:23.930Z,73.12
2019-01-29T08:51:28.353Z,72.35
2019-01-29T08:54:32.790Z,72.50
2019-01-29T08:57:37.221Z,72.08
2019-01-29T09:00:41.646Z,71.32
2019-01-29T09:03:46.082Z,71.03
2019-01-29T09:06:50.788Z,71.16
2019-01-29T09:09:55.217Z,70.58
2019-01-29T09:12:59.703Z,71.82
2019-01-29T09:16:04.461Z,72.23
2019-01-29T09:19:08.893Z,72.40
2019-01-29T09:22:13.352Z,72.33
2019-01-29T09:25:21.007Z,71.63
2019-01-29T09:28:24.440Z,71.88
2019-01-29T09:31:29.136Z,71.91
2019-01-29T09:34:33.882Z,71.14
2019-01-29T09:37:38.782Z,70.51
2019-01-29T09:40:43.543Z,70.71
2019-01-29T09:43:48.267Z,70.49
2019-01-29T09:46:52.697Z,70.44
2019-01-29T09:49:57.135Z,70.73
2019-01-29T09:53:01.842Z,71.21
2019-01-29T09:56:06.279Z,71.35
2019-01-29T09:59:10.999Z,70.72
2019-01-29T10:02:15.732Z,70.71
2019-01-29T10:05:20.232Z,70.43
2019-01-29T10:08:25.001Z,69.45
2019-01-29T10:11:29.496Z,69.22
2019-01-29T10:14:34.243Z,65.60
2019-01-29T10:17:39.040Z,65.29
2019-01-29T10:20:43.814Z,65.48
2019-01-29T10:23:48.540Z,65.48
2019-01-29T10:26:52.971Z,61.79
2019-01-29T10:29:57.691Z,54.89
2019-01-29T10:33:02.422Z,48.67
2019-01-29T10:36:06.869Z,44.46
2019-01-29T10:39:11.592Z,44.23
2019-01-29T10:42:16.308Z,42.14
2019-01-29T10:45:22.863Z,46.04
2019-01-29T10:48:27.304Z,48.91
2019-01-29T10:51:31.750Z,50.67
2019-01-29T10:54:36.187Z,50.23
2019-01-29T10:57:40.905Z,52.26
2019-01-29T11:00:45.615Z,52.89
2019-01-29T11:03:50.042Z,54.36
2019-01-29T11:06:54.479Z,54.60
2019-01-29T11:09:58.912Z,55.98
2019-01-29T11:13:03.334Z,55.85
2019-01-29T11:16:07.770Z,55.85
2019-01-29T11:19:12.194Z,57.33
2019-01-29T11:22:16.644Z,57.02
2019-01-29T11:25:25.487Z,58.39
2019-01-29T11:28:29.909Z,57.87
2019-01-29T11:31:34.670Z,60.06
2019-01-29T11:34:39.162Z,60.37
2019-01-29T11:37:43.918Z,58.21
2019-01-29T11:40:48.751Z,58.26
2019-01-29T11:43:53.485Z,59.43
2019-01-29T11:46:57.917Z,59.38
2019-01-29T11:50:02.652Z,59.97
2019-01-29T11:53:07.077Z,60.43
2019-01-29T11:56:11.521Z,60.56
2019-01-29T11:59:15.945Z,58.03
2019-01-29T12:02:28.069Z,56.34
2019-01-29T12:05:26.551Z,54.78
2019-01-29T12:08:31.324Z,56.85
2019-01-29T12:11:35.761Z,55.37
2019-01-29T12:14:40.482Z,53.29
2019-01-29T12:17:44.913Z,56.86
2019-01-29T12:20:49.566Z,57.05
2019-01-29T12:23:53.999Z,59.12
2019-01-29T12:26:58.688Z,59.66
2019-01-29T12:30:03.190Z,60.73
2019-01-29T12:33:09.167Z,61.29
2019-01-29T12:36:13.913Z,59.74
2019-01-29T12:39:18.343Z,58.46
2019-01-29T12:42:22.841Z,58.58
2019-01-29T12:45:27.586Z,58.23
2019-01-29T12:48:32.025Z,58.65
2019-01-29T12:51:37.339Z,59.80
2019-01-29T12:54:41.764Z,58.80
2019-01-29T12:57:46.203Z,57.83
2019-01-29T13:00:52.572Z,58.31
2019-01-29T13:03:57.298Z,56.50
2019-01-29T13:07:01.739Z,57.02
2019-01-29T13:10:19.369Z,56.61
2019-01-29T13:13:23.950Z,56.27
2019-01-29T13:16:28.383Z,53.68
2019-01-29T13:19:33.243Z,53.60
2019-01-29T13:22:37.681Z,53.59
2019-01-29T13:25:42.110Z,50.35
2019-01-29T13:28:46.544Z,50.59
2019-01-29T13:31:50.973Z,52.88
2019-01-29T13:34:55.697Z,50.52
2019-01-29T13:38:00.108Z,50.32
2019-01-29T13:41:05.139Z,51.70
2019-01-29T13:44:09.873Z,52.25
2019-01-29T13:47:14.298Z,53.73
2019-01-29T13:50:41.646Z,51.90
2019-01-29T13:53:46.078Z,50.37
2019-01-29T13:56:50.518Z,50.87
2019-01-29T13:59:55.227Z,49.92
2019-01-29T14:03:00.265Z,49.97
2019-01-29T14:06:04.756Z,50.30
2019-01-29T14:09:09.730Z,49.05
2019-01-29T14:12:14.453Z,50.25
2019-01-29T14:15:23.429Z,51.75
2019-01-29T14:18:27.868Z,51.66
2019-01-29T14:21:32.541Z,51.51
2019-01-29T14:24:36.975Z,52.23
2019-01-29T14:27:41.415Z,53.10
2019-01-29T14:30:45.848Z,51.57
2019-01-29T14:33:50.537Z,49.75
2019-01-29T14:36:54.965Z,48.82
2019-01-29T14:40:09.980Z,48.33
2019-01-29T14:43:27.221Z,48.81
2019-01-29T14:46:31.991Z,47.99
2019-01-29T14:49:36.825Z,47.66
2019-01-29T14:52:41.251Z,48.38
2019-01-29T14:55:45.690Z,48.93
2019-01-29T14:58:50.129Z,48.06
2019-01-29T15:01:54.555Z,48.56
2019-01-29T15:04:58.989Z,48.90
2019-01-29T15:08:03.434Z,47.63
2019-01-29T15:11:07.935Z,48.02
2019-01-29T15:14:12.379Z,50.54
2019-01-29T15:17:18.521Z,50.57
2019-01-29T15:20:23.213Z,51.44
2019-01-29T15:23:27.643Z,51.73
2019-01-29T15:26:32.078Z,52.48
2019-01-29T15:29:36.788Z,52.75
2019-01-29T15:32:41.219Z,51.49
2019-01-29T15:35:45.950Z,51.77
2019-01-29T15:38:50.374Z,53.65
2019-01-29T15:41:54.813Z,54.58
2019-01-29T15:44:59.257Z,54.21
2019-01-29T15:48:04.048Z,52.97
2019-01-29T15:51:08.881Z,54.28
2019-01-29T15:54:13.319Z,55.65
2019-01-29T15:57:18.035Z,56.93
2019-01-29T16:00:31.502Z,56.74
2019-01-29T16:03:35.946Z,57.21
2019-01-29T16:06:40.840Z,58.03
2019-01-29T16:09:45.277Z,57.39
2019-01-29T16:12:49.702Z,58.17
2019-01-29T16:15:54.407Z,57.60
2019-01-29T16:18:58.846Z,58.41
2019-01-29T16:22:03.279Z,59.70
2019-01-29T16:25:12.299Z,60.72
2019-01-29T16:28:16.721Z,61.79
2019-01-29T16:31:21.441Z,61.93
2019-01-29T16:34:25.885Z,62.14
2019-01-29T16:37:30.601Z,63.33
2019-01-29T16:40:41.657Z,64.21
2019-01-29T16:43:46.403Z,64.27
2019-01-29T16:46:51.138Z,64.81
2019-01-29T16:49:55.868Z,64.71
2019-01-29T16:53:01.118Z,65.10
2019-01-29T16:56:06.349Z,65.91
2019-01-29T16:59:10.786Z,66.42
2019-01-29T17:02:15.621Z,66.74
2019-01-29T17:05:20.193Z,66.79
2019-01-29T17:08:24.966Z,65.62
2019-01-29T17:11:29.402Z,65.85
2019-01-29T17:14:33.835Z,66.30
2019-01-29T17:17:38.265Z,65.87
2019-01-29T17:20:47.009Z,65.39
2019-01-29T17:23:51.689Z,65.40
2019-01-29T17:26:56.130Z,65.21
2019-01-29T17:30:00.563Z,65.15
2019-01-29T17:33:06.229Z,65.46
2019-01-29T17:36:10.665Z,65.80
2019-01-29T17:39:15.096Z,66.62
2019-01-29T17:42:19.882Z,68.31
2019-01-29T17:45:34.277Z,69.37
2019-01-29T17:48:38.785Z,70.29
2019-01-29T17:51:43.481Z,70.93
2019-01-29T17:54:48.221Z,71.34
2019-01-29T17:57:52.659Z,71.59
2019-01-29T18:00:58.738Z,71.82
2019-01-29T18:04:03.437Z,71.74
2019-01-29T18:07:07.966Z,72.02
2019-01-29T18:10:17.092Z,72.09
2019-01-29T18:13:21.526Z,72.11
2019-01-29T18:16:26.248Z,72.53
2019-01-29T18:19:30.672Z,72.62
2019-01-29T18:22:35.183Z,73.05
2019-01-29T18:25:39.667Z,72.85
2019-01-29T18:28:44.364Z,72.38
2019-01-29T18:31:48.802Z,72.62
2019-01-29T18:34:53.570Z,72.75
2019-01-29T18:37:58.435Z,72.21
2019-01-29T18:41:03.167Z,72.45
2019-01-29T18:44:07.596Z,72.87
2019-01-29T18:47:12.550Z,72.65
2019-01-29T18:50:20.190Z,72.56
2019-01-29T18:53:24.630Z,71.39
2019-01-29T18:56:29.173Z,71.51
2019-01-29T18:59:33.905Z,72.00
2019-01-29T19:02:38.638Z,71.62
2019-01-29T19:05:43.068Z,71.27
2019-01-29T19:08:47.789Z,71.66
2019-01-29T19:11:52.524Z,71.91
2019-01-29T19:14:57.272Z,71.91
2019-01-29T19:18:01.714Z,72.26
2019-01-29T19:21:06.611Z,71.25
2019-01-29T19:24:11.096Z,70.84
2019-01-29T19:27:15.533Z,70.73
2019-01-29T19:30:27.376Z,70.04
2019-01-29T19:33:31.823Z,70.04
2019-01-29T19:36:36.277Z,70.32
2019-01-29T19:39:40.787Z,70.80
2019-01-29T19:42:45.221Z,70.75
2019-01-29T19:45:49.660Z,70.87
2019-01-29T19:48:54.234Z,70.58
2019-01-29T19:51:58.663Z,70.37
2019-01-29T19:55:03.101Z,70.19
2019-01-29T19:58:09.461Z,70.21
2019-01-29T20:01:14.031Z,70.31
2019-01-29T20:04:18.467Z,70.49
2019-01-29T20:07:23.239Z,71.02
2019-01-29T20:10:27.935Z,71.31
2019-01-29T20:13:32.670Z,71.48
2019-01-29T20:16:37.111Z,71.10
2019-01-29T20:19:41.825Z,70.65
2019-01-29T20:22:46.263Z,70.59
2019-01-29T20:25:54.493Z,71.00
2019-01-29T20:28:59.208Z,71.59
2019-01-29T20:32:07.358Z,71.56
2019-01-29T20:35:12.138Z,72.27
2019-01-29T20:38:16.971Z,72.08
2019-01-29T20:41:21.707Z,72.38
2019-01-29T20:44:26.175Z,72.50
2019-01-29T20:47:30.796Z,72.27
2019-01-29T20:50:37.339Z,72.38
2019-01-29T20:53:41.859Z,71.92
2019-01-29T20:56:46.329Z,72.04
2019-01-29T20:59:51.112Z,72.38
2019-01-29T21:02:55.853Z,72.79
2019-01-29T21:06:00.305Z,73.04
2019-01-29T21:09:08.580Z,73.71
2019-01-29T21:12:13.310Z,73.60
2019-01-29T21:15:23.531Z,74.42
2019-01-29T21:18:27.967Z,74.43
2019-01-29T21:21:32.720Z,74.36
2019-01-29T21:24:37.711Z,74.33
2019-01-29T21:27:42.797Z,74.50
2019-01-29T21:30:48.149Z,74.55
2019-01-29T21:33:52.574Z,74.66
2019-01-29T21:36:57.020Z,74.19
2019-01-29T21:40:01.474Z,73.95
2019-01-29T21:43:05.981Z,73.51
2019-01-29T21:46:10.775Z,73.23
2019-01-29T21:49:15.217Z,73.49
2019-01-29T21:52:19.660Z,73.48
2019-01-29T21:55:24.969Z,73.37
2019-01-29T21:58:29.415Z,73.37
2019-01-29T22:01:34.122Z,73.23
2019-01-29T22:04:38.856Z,73.31
2019-01-29T22:07:43.600Z,73.45
2019-01-29T22:10:48.312Z,73.48
2019-01-29T22:13:53.039Z,73.92
2019-01-29T22:16:57.782Z,74.10
2019-01-29T22:20:02.505Z,74.78
2019-01-29T22:23:07.346Z,74.71
2019-01-29T22:26:12.070Z,75.25
2019-01-29T22:29:23.184Z,74.68
2019-01-29T22:32:22.982Z,74.68
2019-01-29T22:35:27.905Z,74.49
2019-01-29T22:38:32.338Z,75.02
2019-01-29T22:41:37.090Z,75.34
2019-01-29T22:44:41.790Z,74.74
2019-01-29T22:47:46.740Z,74.70
2019-01-29T22:50:51.189Z,74.29
2019-01-29T22:53:55.624Z,75.06
2019-01-29T22:57:00.073Z,74.95
2019-01-29T23:00:07.712Z,75.42
2019-01-29T23:03:12.223Z,75.54
2019-01-29T23:06:23.864Z,75.66
2019-01-29T23:09:28.672Z,75.48
2019-01-29T23:12:33.507Z,75.64
2019-01-29T23:15:37.994Z,75.59
2019-01-29T23:18:42.457Z,75.62
2019-01-29T23:21:47.052Z,75.31
2019-01-29T23:24:51.525Z,75.55
2019-01-29T23:27:55.974Z,75.61
2019-01-29T23:31:00.422Z,75.77
2019-01-29T23:34:05.473Z,75.74
2019-01-29T23:37:09.987Z,75.03
2019-01-29T23:40:17.244Z,75.21
2019-01-29T23:43:22.010Z,75.57
2019-01-29T23:46:26.739Z,75.36
2019-01-29T23:49:31.175Z,75.50
2019-01-29T23:52:35.892Z,75.62
2019-01-29T23:55:40.624Z,75.45
2019-01-29T23:58:45.061Z,74.86
